Ville De Bordeaux — FZCE — position and weather

sailwx.info

Track history (hours):
 
Tides and Currents Weather Stations Pressure Air Temp Water Temp Dewpoint Dewpoint Depression Visibility Wind Speed Wind Dir Waves Ship Positions

Ville De Bordeaux

Last reported at 2015-May-22 12:32 UTC. Time now 2015-May-23 02:41 UTC.
Position N 40°34' E 013°44'.

Length 150 m; beam 24 m.

Type: Ship. MMSI: 228084000.

Date/timePositionNaut miles runAvg speedWind from/ knotsBaromVisibWave heightAir tempDewpointWater temp
2015-May-22 12:32N 40°34' E 013°44'1515.6
2015-May-22 11:33N 40°41' E 014°02'14 1.1
2015-May-21 22:21N 40°50' E 014°17'4 5.0
2015-May-21 21:33N 40°47' E 014°15'9 9.3
2015-May-21 20:33N 40°43' E 014°04'1010.1
2015-May-21 19:33N 40°38' E 013°52'22710.3
2015-May-20 21:28N 38°56' E 009°28'9 9.5
2015-May-20 20:33N 38°54' E 009°17'1010.0
2015-May-20 19:32N 38°51' E 009°05'1010.3
2015-May-20 18:31N 38°47' E 008°52'42014.3
2015-May-19 13:07N 36°55' E 000°19'8 9.8
2015-May-19 12:17N 36°53' E 000°09'1110.0
2015-May-19 11:13N 36°51' W 000°04'9 9.7
2015-May-19 10:15N 36°48' W 000°15'710.0
2015-May-19 09:32N 36°46' W 000°24'1010.0
2015-May-19 08:33N 36°44' W 000°36'1010.5
2015-May-19 07:33N 36°40' W 000°48'2310.8
2015-May-19 05:28N 36°35' W 001°15'3210.7
2015-May-19 02:30N 36°27' W 001°54'2010.1
2015-May-19 00:33N 36°21' W 002°17'15112.5
2015-May-18 12:33N 35°60' W 005°22'16614.6
2015-May-18 01:11N 36°27' W 008°45'915.2
2015-May-18 00:34N 36°29' W 008°56'1515.1
2015-May-17 23:33N 36°33' W 009°14'1515.0
2015-May-17 22:32N 36°44' W 009°28'1715.0
2015-May-17 21:23N 36°59' W 009°36'1315.6
2015-May-17 20:33N 37°12' W 009°40'1616.3
2015-May-17 19:34N 37°28' W 009°45'1716.4
2015-May-17 18:33N 37°44' W 009°50'1616.4
2015-May-17 17:34N 37°60' W 009°54'1616.3
2015-May-17 16:33N 38°16' W 009°58'1616.4
2015-May-17 15:33N 38°32' W 010°03'  
2015-May-12 18:33N 40°54' W 009°50'5015.3
2015-May-12 15:19N 40°04' W 009°50'  
Track history (hours):
 
Tides and Currents Weather Stations Pressure Air Temp Water Temp Dewpoint Dewpoint Depression Visibility Wind Speed Wind Dir Waves Ship Positions

Ville De Bordeaux

Last reported at 2015-May-22 12:32 UTC. Time now 2015-May-23 02:41 UTC.
Position N 40°34' E 013°44'.

Length 150 m; beam 24 m.

Type: Ship. MMSI: 228084000.

Date/timePositionNaut miles runAvg speedWind from/ knotsBaromVisibWave heightAir tempDewpointWater temp
2015-May-22 12:32N 40°34' E 013°44'1515.6
2015-May-22 11:33N 40°41' E 014°02'14 1.1
2015-May-21 22:21N 40°50' E 014°17'4 5.0
2015-May-21 21:33N 40°47' E 014°15'9 9.3
2015-May-21 20:33N 40°43' E 014°04'1010.1
2015-May-21 19:33N 40°38' E 013°52'22710.3
2015-May-20 21:28N 38°56' E 009°28'9 9.5
2015-May-20 20:33N 38°54' E 009°17'1010.0
2015-May-20 19:32N 38°51' E 009°05'1010.3
2015-May-20 18:31N 38°47' E 008°52'42014.3
2015-May-19 13:07N 36°55' E 000°19'8 9.8
2015-May-19 12:17N 36°53' E 000°09'1110.0
2015-May-19 11:13N 36°51' W 000°04'9 9.7
2015-May-19 10:15N 36°48' W 000°15'710.0
2015-May-19 09:32N 36°46' W 000°24'1010.0
2015-May-19 08:33N 36°44' W 000°36'1010.5
2015-May-19 07:33N 36°40' W 000°48'2310.8
2015-May-19 05:28N 36°35' W 001°15'3210.7
2015-May-19 02:30N 36°27' W 001°54'2010.1
2015-May-19 00:33N 36°21' W 002°17'15112.5
2015-May-18 12:33N 35°60' W 005°22'16614.6
2015-May-18 01:11N 36°27' W 008°45'915.2
2015-May-18 00:34N 36°29' W 008°56'1515.1
2015-May-17 23:33N 36°33' W 009°14'1515.0
2015-May-17 22:32N 36°44' W 009°28'1715.0
2015-May-17 21:23N 36°59' W 009°36'1315.6
2015-May-17 20:33N 37°12' W 009°40'1616.3
2015-May-17 19:34N 37°28' W 009°45'1716.4
2015-May-17 18:33N 37°44' W 009°50'1616.4
2015-May-17 17:34N 37°60' W 009°54'1616.3
2015-May-17 16:33N 38°16' W 009°58'1616.4
2015-May-17 15:33N 38°32' W 010°03'  
2015-May-12 18:33N 40°54' W 009°50'5015.3
2015-May-12 15:19N 40°04' W 009°50'  

Dump ship's entire track history